sensor_id;sensor_type;location;lat;lon;timestamp;P1;durP1;ratioP1;P2;durP2;ratioP2
51866;SDS011;52862;52.504;13.480;2023-09-30T00:01:43;5.17;;;1.30;;
51866;SDS011;52862;52.504;13.480;2023-09-30T00:04:10;12.10;;;2.10;;
51866;SDS011;52862;52.504;13.480;2023-09-30T00:06:38;10.10;;;1.87;;
51866;SDS011;52862;52.504;13.480;2023-09-30T00:09:05;11.77;;;1.63;;
51866;SDS011;52862;52.504;13.480;2023-09-30T00:11:32;10.33;;;1.97;;
51866;SDS011;52862;52.504;13.480;2023-09-30T00:14:01;12.27;;;2.00;;
51866;SDS011;52862;52.504;13.480;2023-09-30T00:16:27;6.33;;;1.97;;
51866;SDS011;52862;52.504;13.480;2023-09-30T00:18:54;7.83;;;2.00;;
51866;SDS011;52862;52.504;13.480;2023-09-30T00:21:22;10.17;;;1.83;;
51866;SDS011;52862;52.504;13.480;2023-09-30T00:23:49;16.77;;;2.20;;
51866;SDS011;52862;52.504;13.480;2023-09-30T00:26:16;11.17;;;2.10;;
51866;SDS011;52862;52.504;13.480;2023-09-30T00:28:43;17.10;;;3.27;;
51866;SDS011;52862;52.504;13.480;2023-09-30T00:31:10;12.50;;;2.30;;
51866;SDS011;52862;52.504;13.480;2023-09-30T00:33:37;13.83;;;3.60;;
51866;SDS011;52862;52.504;13.480;2023-09-30T00:36:08;17.80;;;2.90;;
51866;SDS011;52862;52.504;13.480;2023-09-30T00:38:36;11.83;;;2.63;;
51866;SDS011;52862;52.504;13.480;2023-09-30T00:41:03;12.67;;;3.43;;
51866;SDS011;52862;52.504;13.480;2023-09-30T00:43:30;14.10;;;2.87;;
51866;SDS011;52862;52.504;13.480;2023-09-30T00:46:01;30.67;;;5.00;;
51866;SDS011;52862;52.504;13.480;2023-09-30T00:48:32;13.53;;;2.73;;
51866;SDS011;52862;52.504;13.480;2023-09-30T00:51:00;18.77;;;3.57;;
51866;SDS011;52862;52.504;13.480;2023-09-30T00:53:27;13.60;;;2.90;;
51866;SDS011;52862;52.504;13.480;2023-09-30T00:55:54;17.97;;;4.30;;
51866;SDS011;52862;52.504;13.480;2023-09-30T00:58:22;10.40;;;2.43;;
51866;SDS011;52862;52.504;13.480;2023-09-30T01:00:51;18.77;;;3.67;;
51866;SDS011;52862;52.504;13.480;2023-09-30T01:03:19;18.93;;;3.20;;
51866;SDS011;52862;52.504;13.480;2023-09-30T01:05:47;19.07;;;3.67;;
51866;SDS011;52862;52.504;13.480;2023-09-30T01:08:15;24.10;;;3.87;;
51866;SDS011;52862;52.504;13.480;2023-09-30T01:10:42;30.43;;;3.27;;
51866;SDS011;52862;52.504;13.480;2023-09-30T01:13:09;26.60;;;3.50;;
51866;SDS011;52862;52.504;13.480;2023-09-30T01:15:36;14.23;;;3.30;;
51866;SDS011;52862;52.504;13.480;2023-09-30T01:18:04;20.03;;;4.40;;
51866;SDS011;52862;52.504;13.480;2023-09-30T01:20:32;19.43;;;4.17;;
51866;SDS011;52862;52.504;13.480;2023-09-30T01:23:00;18.63;;;3.30;;
51866;SDS011;52862;52.504;13.480;2023-09-30T01:25:28;15.03;;;3.73;;
51866;SDS011;52862;52.504;13.480;2023-09-30T01:27:56;28.23;;;4.27;;
51866;SDS011;52862;52.504;13.480;2023-09-30T01:30:25;18.27;;;3.97;;
51866;SDS011;52862;52.504;13.480;2023-09-30T01:32:53;19.17;;;3.97;;
51866;SDS011;52862;52.504;13.480;2023-09-30T01:35:20;19.00;;;3.63;;
51866;SDS011;52862;52.504;13.480;2023-09-30T01:37:47;18.93;;;3.87;;
51866;SDS011;52862;52.504;13.480;2023-09-30T01:40:15;26.83;;;4.17;;
51866;SDS011;52862;52.504;13.480;2023-09-30T01:42:43;31.80;;;3.90;;
51866;SDS011;52862;52.504;13.480;2023-09-30T01:45:11;18.20;;;3.53;;
51866;SDS011;52862;52.504;13.480;2023-09-30T01:47:38;25.47;;;3.73;;
51866;SDS011;52862;52.504;13.480;2023-09-30T01:50:05;20.90;;;4.27;;
51866;SDS011;52862;52.504;13.480;2023-09-30T01:52:32;15.33;;;3.77;;
51866;SDS011;52862;52.504;13.480;2023-09-30T01:55:00;18.67;;;3.70;;
51866;SDS011;52862;52.504;13.480;2023-09-30T01:57:28;15.03;;;3.60;;
51866;SDS011;52862;52.504;13.480;2023-09-30T01:59:55;19.00;;;4.50;;
51866;SDS011;52862;52.504;13.480;2023-09-30T02:02:22;20.30;;;4.20;;
51866;SDS011;52862;52.504;13.480;2023-09-30T02:04:51;20.43;;;3.57;;
51866;SDS011;52862;52.504;13.480;2023-09-30T02:07:19;16.57;;;3.70;;
51866;SDS011;52862;52.504;13.480;2023-09-30T02:09:46;27.30;;;4.73;;
51866;SDS011;52862;52.504;13.480;2023-09-30T02:12:14;24.87;;;4.70;;
51866;SDS011;52862;52.504;13.480;2023-09-30T02:14:42;20.70;;;3.90;;
51866;SDS011;52862;52.504;13.480;2023-09-30T02:17:09;28.13;;;4.37;;
51866;SDS011;52862;52.504;13.480;2023-09-30T02:19:37;21.03;;;4.23;;
51866;SDS011;52862;52.504;13.480;2023-09-30T02:22:04;24.50;;;4.20;;
51866;SDS011;52862;52.504;13.480;2023-09-30T02:24:31;31.33;;;4.70;;
51866;SDS011;52862;52.504;13.480;2023-09-30T02:26:58;19.03;;;4.20;;
51866;SDS011;52862;52.504;13.480;2023-09-30T02:29:25;28.40;;;4.47;;
51866;SDS011;52862;52.504;13.480;2023-09-30T02:31:53;25.23;;;5.27;;
51866;SDS011;52862;52.504;13.480;2023-09-30T02:34:20;21.67;;;4.43;;
51866;SDS011;52862;52.504;13.480;2023-09-30T02:36:48;26.73;;;4.33;;
51866;SDS011;52862;52.504;13.480;2023-09-30T02:39:15;20.83;;;3.93;;
51866;SDS011;52862;52.504;13.480;2023-09-30T02:41:42;32.20;;;4.40;;
51866;SDS011;52862;52.504;13.480;2023-09-30T02:44:09;18.43;;;4.03;;
51866;SDS011;52862;52.504;13.480;2023-09-30T02:46:36;20.47;;;4.27;;
51866;SDS011;52862;52.504;13.480;2023-09-30T02:49:04;20.33;;;4.20;;
51866;SDS011;52862;52.504;13.480;2023-09-30T02:51:31;18.27;;;4.17;;
51866;SDS011;52862;52.504;13.480;2023-09-30T02:53:58;35.30;;;5.37;;
51866;SDS011;52862;52.504;13.480;2023-09-30T02:56:25;16.03;;;4.30;;
51866;SDS011;52862;52.504;13.480;2023-09-30T02:58:54;29.53;;;5.17;;
51866;SDS011;52862;52.504;13.480;2023-09-30T03:01:21;22.20;;;4.23;;
51866;SDS011;52862;52.504;13.480;2023-09-30T03:03:48;26.57;;;4.47;;
51866;SDS011;52862;52.504;13.480;2023-09-30T03:06:16;33.50;;;4.70;;
51866;SDS011;52862;52.504;13.480;2023-09-30T03:08:44;24.77;;;5.00;;
51866;SDS011;52862;52.504;13.480;2023-09-30T03:11:12;22.70;;;3.97;;
51866;SDS011;52862;52.504;13.480;2023-09-30T03:13:39;25.43;;;4.43;;
51866;SDS011;52862;52.504;13.480;2023-09-30T03:16:08;23.73;;;4.73;;
51866;SDS011;52862;52.504;13.480;2023-09-30T03:18:35;21.87;;;4.00;;
51866;SDS011;52862;52.504;13.480;2023-09-30T03:21:02;24.73;;;4.77;;
51866;SDS011;52862;52.504;13.480;2023-09-30T03:23:34;28.10;;;4.90;;
51866;SDS011;52862;52.504;13.480;2023-09-30T03:26:01;33.30;;;5.20;;
51866;SDS011;52862;52.504;13.480;2023-09-30T03:28:28;37.90;;;5.77;;
51866;SDS011;52862;52.504;13.480;2023-09-30T03:30:55;27.33;;;5.63;;
51866;SDS011;52862;52.504;13.480;2023-09-30T03:33:23;35.87;;;4.43;;
51866;SDS011;52862;52.504;13.480;2023-09-30T03:35:50;28.13;;;5.03;;
51866;SDS011;52862;52.504;13.480;2023-09-30T03:38:17;23.63;;;4.47;;
51866;SDS011;52862;52.504;13.480;2023-09-30T03:40:46;22.57;;;5.03;;
51866;SDS011;52862;52.504;13.480;2023-09-30T03:43:15;33.07;;;5.50;;
51866;SDS011;52862;52.504;13.480;2023-09-30T03:45:42;31.07;;;4.13;;
51866;SDS011;52862;52.504;13.480;2023-09-30T03:48:10;26.00;;;4.83;;
51866;SDS011;52862;52.504;13.480;2023-09-30T03:50:38;19.73;;;4.57;;
51866;SDS011;52862;52.504;13.480;2023-09-30T03:53:05;30.27;;;4.87;;
51866;SDS011;52862;52.504;13.480;2023-09-30T03:55:33;24.33;;;5.97;;
51866;SDS011;52862;52.504;13.480;2023-09-30T03:58:01;26.67;;;5.40;;
51866;SDS011;52862;52.504;13.480;2023-09-30T04:00:28;32.37;;;4.87;;
51866;SDS011;52862;52.504;13.480;2023-09-30T04:02:55;32.07;;;5.07;;
51866;SDS011;52862;52.504;13.480;2023-09-30T04:05:24;38.00;;;4.90;;
51866;SDS011;52862;52.504;13.480;2023-09-30T04:07:55;21.80;;;4.97;;
51866;SDS011;52862;52.504;13.480;2023-09-30T04:10:22;42.63;;;6.30;;
51866;SDS011;52862;52.504;13.480;2023-09-30T04:12:49;22.57;;;4.77;;
51866;SDS011;52862;52.504;13.480;2023-09-30T04:15:18;26.33;;;5.10;;
51866;SDS011;52862;52.504;13.480;2023-09-30T04:17:45;27.73;;;4.70;;
51866;SDS011;52862;52.504;13.480;2023-09-30T04:20:12;36.53;;;4.90;;
51866;SDS011;52862;52.504;13.480;2023-09-30T04:22:44;31.70;;;6.57;;
51866;SDS011;52862;52.504;13.480;2023-09-30T04:25:14;31.33;;;4.83;;
51866;SDS011;52862;52.504;13.480;2023-09-30T04:27:42;20.43;;;4.40;;
51866;SDS011;52862;52.504;13.480;2023-09-30T04:30:10;35.83;;;5.00;;
51866;SDS011;52862;52.504;13.480;2023-09-30T04:32:38;26.40;;;5.23;;
51866;SDS011;52862;52.504;13.480;2023-09-30T04:35:05;34.63;;;5.83;;
51866;SDS011;52862;52.504;13.480;2023-09-30T04:37:33;25.33;;;4.97;;
51866;SDS011;52862;52.504;13.480;2023-09-30T04:40:02;36.57;;;5.37;;
51866;SDS011;52862;52.504;13.480;2023-09-30T04:42:33;26.83;;;4.33;;
51866;SDS011;52862;52.504;13.480;2023-09-30T04:45:02;30.77;;;5.70;;
51866;SDS011;52862;52.504;13.480;2023-09-30T04:47:30;27.30;;;5.17;;
51866;SDS011;52862;52.504;13.480;2023-09-30T04:49:58;27.57;;;5.10;;
51866;SDS011;52862;52.504;13.480;2023-09-30T04:52:27;35.87;;;5.13;;
51866;SDS011;52862;52.504;13.480;2023-09-30T04:54:54;21.27;;;5.23;;
51866;SDS011;52862;52.504;13.480;2023-09-30T04:57:21;35.17;;;5.50;;
51866;SDS011;52862;52.504;13.480;2023-09-30T04:59:48;38.17;;;6.03;;
51866;SDS011;52862;52.504;13.480;2023-09-30T05:02:16;23.93;;;5.53;;
51866;SDS011;52862;52.504;13.480;2023-09-30T05:04:43;29.93;;;5.40;;
51866;SDS011;52862;52.504;13.480;2023-09-30T05:07:10;34.00;;;4.90;;
51866;SDS011;52862;52.504;13.480;2023-09-30T05:09:38;25.43;;;4.70;;
51866;SDS011;52862;52.504;13.480;2023-09-30T05:12:07;36.90;;;5.67;;
51866;SDS011;52862;52.504;13.480;2023-09-30T05:14:37;35.10;;;4.57;;
51866;SDS011;52862;52.504;13.480;2023-09-30T05:17:04;35.43;;;5.23;;
51866;SDS011;52862;52.504;13.480;2023-09-30T05:19:31;25.27;;;5.23;;
51866;SDS011;52862;52.504;13.480;2023-09-30T05:21:58;36.23;;;4.87;;
51866;SDS011;52862;52.504;13.480;2023-09-30T05:24:27;26.93;;;4.17;;
51866;SDS011;52862;52.504;13.480;2023-09-30T05:26:54;35.40;;;5.27;;
51866;SDS011;52862;52.504;13.480;2023-09-30T05:29:21;37.90;;;6.03;;
51866;SDS011;52862;52.504;13.480;2023-09-30T05:31:49;26.73;;;4.47;;
51866;SDS011;52862;52.504;13.480;2023-09-30T05:34:16;23.80;;;4.97;;
51866;SDS011;52862;52.504;13.480;2023-09-30T05:36:43;30.80;;;5.73;;
51866;SDS011;52862;52.504;13.480;2023-09-30T05:39:10;36.97;;;5.97;;
51866;SDS011;52862;52.504;13.480;2023-09-30T05:41:38;39.50;;;4.97;;
51866;SDS011;52862;52.504;13.480;2023-09-30T05:44:06;28.63;;;5.30;;
51866;SDS011;52862;52.504;13.480;2023-09-30T05:46:33;33.53;;;6.03;;
51866;SDS011;52862;52.504;13.480;2023-09-30T05:49:00;23.37;;;4.60;;
51866;SDS011;52862;52.504;13.480;2023-09-30T05:51:27;40.03;;;5.83;;
51866;SDS011;52862;52.504;13.480;2023-09-30T05:53:54;25.47;;;4.93;;
51866;SDS011;52862;52.504;13.480;2023-09-30T05:56:22;30.20;;;4.83;;
51866;SDS011;52862;52.504;13.480;2023-09-30T05:58:49;17.93;;;4.20;;
51866;SDS011;52862;52.504;13.480;2023-09-30T06:01:16;30.50;;;6.03;;
51866;SDS011;52862;52.504;13.480;2023-09-30T06:03:44;29.10;;;5.27;;
51866;SDS011;52862;52.504;13.480;2023-09-30T06:06:12;30.40;;;5.20;;
51866;SDS011;52862;52.504;13.480;2023-09-30T06:08:41;38.87;;;5.93;;
51866;SDS011;52862;52.504;13.480;2023-09-30T06:11:15;33.07;;;6.00;;
51866;SDS011;52862;52.504;13.480;2023-09-30T06:13:43;29.67;;;5.43;;
51866;SDS011;52862;52.504;13.480;2023-09-30T06:16:11;33.23;;;5.57;;
51866;SDS011;52862;52.504;13.480;2023-09-30T06:18:38;24.77;;;4.53;;
51866;SDS011;52862;52.504;13.480;2023-09-30T06:21:05;28.70;;;5.80;;
51866;SDS011;52862;52.504;13.480;2023-09-30T06:23:35;31.50;;;6.70;;
51866;SDS011;52862;52.504;13.480;2023-09-30T06:26:03;28.63;;;5.07;;
51866;SDS011;52862;52.504;13.480;2023-09-30T06:28:30;24.27;;;5.00;;
51866;SDS011;52862;52.504;13.480;2023-09-30T06:30:57;29.70;;;5.47;;
51866;SDS011;52862;52.504;13.480;2023-09-30T06:33:25;38.63;;;5.83;;
51866;SDS011;52862;52.504;13.480;2023-09-30T06:35:55;37.17;;;5.17;;
51866;SDS011;52862;52.504;13.480;2023-09-30T06:38:22;24.93;;;4.40;;
51866;SDS011;52862;52.504;13.480;2023-09-30T06:40:49;24.63;;;4.87;;
51866;SDS011;52862;52.504;13.480;2023-09-30T06:43:16;26.47;;;5.40;;
51866;SDS011;52862;52.504;13.480;2023-09-30T06:45:43;36.70;;;5.30;;
51866;SDS011;52862;52.504;13.480;2023-09-30T06:48:12;31.43;;;5.20;;
51866;SDS011;52862;52.504;13.480;2023-09-30T06:50:43;33.13;;;4.87;;
51866;SDS011;52862;52.504;13.480;2023-09-30T06:53:11;31.83;;;4.93;;
51866;SDS011;52862;52.504;13.480;2023-09-30T06:55:38;28.03;;;4.83;;
51866;SDS011;52862;52.504;13.480;2023-09-30T06:58:06;29.43;;;4.97;;
51866;SDS011;52862;52.504;13.480;2023-09-30T07:00:34;26.63;;;4.93;;
51866;SDS011;52862;52.504;13.480;2023-09-30T07:03:02;28.77;;;4.27;;
51866;SDS011;52862;52.504;13.480;2023-09-30T07:05:29;28.43;;;4.67;;
51866;SDS011;52862;52.504;13.480;2023-09-30T07:07:57;25.33;;;4.97;;
51866;SDS011;52862;52.504;13.480;2023-09-30T07:10:24;26.53;;;4.93;;
51866;SDS011;52862;52.504;13.480;2023-09-30T07:12:51;41.57;;;4.77;;
51866;SDS011;52862;52.504;13.480;2023-09-30T07:15:18;29.90;;;4.03;;
51866;SDS011;52862;52.504;13.480;2023-09-30T07:17:46;27.33;;;4.77;;
51866;SDS011;52862;52.504;13.480;2023-09-30T07:20:13;24.83;;;4.93;;
51866;SDS011;52862;52.504;13.480;2023-09-30T07:22:40;36.67;;;5.13;;
51866;SDS011;52862;52.504;13.480;2023-09-30T07:25:22;28.40;;;4.83;;
51866;SDS011;52862;52.504;13.480;2023-09-30T07:27:48;27.90;;;4.33;;
51866;SDS011;52862;52.504;13.480;2023-09-30T07:30:16;39.73;;;5.53;;
51866;SDS011;52862;52.504;13.480;2023-09-30T07:32:43;32.37;;;5.43;;
51866;SDS011;52862;52.504;13.480;2023-09-30T07:35:11;37.73;;;6.87;;
51866;SDS011;52862;52.504;13.480;2023-09-30T07:37:39;24.97;;;4.47;;
51866;SDS011;52862;52.504;13.480;2023-09-30T07:40:07;30.13;;;4.97;;
51866;SDS011;52862;52.504;13.480;2023-09-30T07:42:36;35.27;;;5.23;;
51866;SDS011;52862;52.504;13.480;2023-09-30T07:45:03;31.40;;;4.47;;
51866;SDS011;52862;52.504;13.480;2023-09-30T07:47:31;31.03;;;4.43;;
51866;SDS011;52862;52.504;13.480;2023-09-30T07:50:00;44.97;;;5.70;;
51866;SDS011;52862;52.504;13.480;2023-09-30T07:52:33;29.57;;;5.57;;
51866;SDS011;52862;52.504;13.480;2023-09-30T07:55:02;24.23;;;5.07;;
51866;SDS011;52862;52.504;13.480;2023-09-30T07:57:32;25.03;;;4.83;;
51866;SDS011;52862;52.504;13.480;2023-09-30T08:00:04;39.70;;;4.33;;
51866;SDS011;52862;52.504;13.480;2023-09-30T08:02:34;29.90;;;4.93;;
51866;SDS011;52862;52.504;13.480;2023-09-30T08:05:02;29.83;;;5.47;;
51866;SDS011;52862;52.504;13.480;2023-09-30T08:07:29;27.40;;;5.10;;
51866;SDS011;52862;52.504;13.480;2023-09-30T08:09:56;28.50;;;4.93;;
51866;SDS011;52862;52.504;13.480;2023-09-30T08:12:24;24.03;;;4.53;;
51866;SDS011;52862;52.504;13.480;2023-09-30T08:14:51;25.97;;;4.13;;
51866;SDS011;52862;52.504;13.480;2023-09-30T08:17:19;40.37;;;4.57;;
51866;SDS011;52862;52.504;13.480;2023-09-30T08:19:46;22.10;;;4.40;;
51866;SDS011;52862;52.504;13.480;2023-09-30T08:22:13;25.17;;;5.03;;
51866;SDS011;52862;52.504;13.480;2023-09-30T08:24:41;29.27;;;4.07;;
51866;SDS011;52862;52.504;13.480;2023-09-30T08:27:08;29.87;;;4.50;;
51866;SDS011;52862;52.504;13.480;2023-09-30T08:29:36;30.43;;;4.00;;
51866;SDS011;52862;52.504;13.480;2023-09-30T08:32:03;35.80;;;5.20;;
51866;SDS011;52862;52.504;13.480;2023-09-30T08:34:31;23.80;;;3.83;;
51866;SDS011;52862;52.504;13.480;2023-09-30T08:36:59;26.30;;;4.40;;
51866;SDS011;52862;52.504;13.480;2023-09-30T08:39:27;27.23;;;4.53;;
51866;SDS011;52862;52.504;13.480;2023-09-30T08:41:54;22.33;;;4.67;;
51866;SDS011;52862;52.504;13.480;2023-09-30T08:44:22;31.77;;;5.00;;
51866;SDS011;52862;52.504;13.480;2023-09-30T08:46:49;22.57;;;4.53;;
51866;SDS011;52862;52.504;13.480;2023-09-30T08:49:21;31.13;;;4.83;;
51866;SDS011;52862;52.504;13.480;2023-09-30T08:51:52;23.63;;;3.63;;
51866;SDS011;52862;52.504;13.480;2023-09-30T08:54:23;29.10;;;3.97;;
51866;SDS011;52862;52.504;13.480;2023-09-30T08:56:52;22.20;;;4.17;;
51866;SDS011;52862;52.504;13.480;2023-09-30T08:59:22;29.80;;;4.67;;
51866;SDS011;52862;52.504;13.480;2023-09-30T09:01:50;30.07;;;5.00;;
51866;SDS011;52862;52.504;13.480;2023-09-30T09:04:18;19.50;;;3.67;;
51866;SDS011;52862;52.504;13.480;2023-09-30T09:06:45;29.47;;;4.30;;
51866;SDS011;52862;52.504;13.480;2023-09-30T09:09:14;24.80;;;4.03;;
51866;SDS011;52862;52.504;13.480;2023-09-30T09:11:43;22.70;;;4.37;;
51866;SDS011;52862;52.504;13.480;2023-09-30T09:14:10;29.83;;;5.10;;
51866;SDS011;52862;52.504;13.480;2023-09-30T09:16:47;31.87;;;6.17;;
51866;SDS011;52862;52.504;13.480;2023-09-30T09:19:19;29.77;;;4.67;;
51866;SDS011;52862;52.504;13.480;2023-09-30T09:21:54;30.50;;;4.73;;
51866;SDS011;52862;52.504;13.480;2023-09-30T09:24:29;31.23;;;4.10;;
51866;SDS011;52862;52.504;13.480;2023-09-30T09:27:03;33.57;;;3.93;;
51866;SDS011;52862;52.504;13.480;2023-09-30T09:29:32;26.07;;;4.67;;
51866;SDS011;52862;52.504;13.480;2023-09-30T09:32:09;17.73;;;4.07;;
51866;SDS011;52862;52.504;13.480;2023-09-30T09:34:37;38.30;;;4.37;;
51866;SDS011;52862;52.504;13.480;2023-09-30T09:37:14;18.80;;;4.07;;
51866;SDS011;52862;52.504;13.480;2023-09-30T09:42:30;22.50;;;4.03;;
51866;SDS011;52862;52.504;13.480;2023-09-30T09:45:03;25.90;;;3.93;;
51866;SDS011;52862;52.504;13.480;2023-09-30T09:47:33;25.63;;;3.77;;
51866;SDS011;52862;52.504;13.480;2023-09-30T09:50:02;26.00;;;4.13;;
51866;SDS011;52862;52.504;13.480;2023-09-30T09:52:30;24.57;;;4.93;;
51866;SDS011;52862;52.504;13.480;2023-09-30T09:55:00;28.17;;;4.07;;
51866;SDS011;52862;52.504;13.480;2023-09-30T09:57:29;27.73;;;4.77;;
51866;SDS011;52862;52.504;13.480;2023-09-30T09:59:57;27.40;;;3.63;;
51866;SDS011;52862;52.504;13.480;2023-09-30T10:02:26;26.67;;;4.43;;
51866;SDS011;52862;52.504;13.480;2023-09-30T10:04:55;25.10;;;3.07;;
51866;SDS011;52862;52.504;13.480;2023-09-30T10:07:25;31.50;;;4.13;;
51866;SDS011;52862;52.504;13.480;2023-09-30T10:09:54;25.50;;;4.37;;
51866;SDS011;52862;52.504;13.480;2023-09-30T10:12:25;14.07;;;3.25;;
51866;SDS011;52862;52.504;13.480;2023-09-30T10:14:53;32.37;;;4.20;;
51866;SDS011;52862;52.504;13.480;2023-09-30T10:17:20;27.60;;;3.87;;
51866;SDS011;52862;52.504;13.480;2023-09-30T10:20:07;29.23;;;4.47;;
51866;SDS011;52862;52.504;13.480;2023-09-30T10:22:35;23.20;;;3.80;;
51866;SDS011;52862;52.504;13.480;2023-09-30T10:25:02;27.63;;;4.47;;
51866;SDS011;52862;52.504;13.480;2023-09-30T10:31:10;24.87;;;4.07;;
51866;SDS011;52862;52.504;13.480;2023-09-30T10:36:51;25.03;;;3.50;;
51866;SDS011;52862;52.504;13.480;2023-09-30T10:51:02;21.10;;;3.75;;
51866;SDS011;52862;52.504;13.480;2023-09-30T10:53:41;13.85;;;3.10;;
51866;SDS011;52862;52.504;13.480;2023-09-30T10:56:10;12.93;;;2.83;;
51866;SDS011;52862;52.504;13.480;2023-09-30T10:58:41;18.97;;;3.43;;
51866;SDS011;52862;52.504;13.480;2023-09-30T11:01:09;19.33;;;3.23;;
51866;SDS011;52862;52.504;13.480;2023-09-30T11:03:39;17.47;;;2.97;;
51866;SDS011;52862;52.504;13.480;2023-09-30T11:06:10;17.97;;;3.20;;
51866;SDS011;52862;52.504;13.480;2023-09-30T11:08:40;28.07;;;3.77;;
51866;SDS011;52862;52.504;13.480;2023-09-30T11:11:12;21.38;;;3.88;;
51866;SDS011;52862;52.504;13.480;2023-09-30T11:13:40;10.80;;;2.70;;
51866;SDS011;52862;52.504;13.480;2023-09-30T11:16:07;21.63;;;3.83;;
51866;SDS011;52862;52.504;13.480;2023-09-30T11:18:35;16.20;;;3.10;;
51866;SDS011;52862;52.504;13.480;2023-09-30T11:21:04;27.40;;;3.13;;
51866;SDS011;52862;52.504;13.480;2023-09-30T11:23:33;19.95;;;3.25;;
51866;SDS011;52862;52.504;13.480;2023-09-30T11:26:00;14.53;;;2.93;;
51866;SDS011;52862;52.504;13.480;2023-09-30T11:28:35;9.93;;;2.07;;
51866;SDS011;52862;52.504;13.480;2023-09-30T11:31:07;18.58;;;3.03;;
51866;SDS011;52862;52.504;13.480;2023-09-30T11:33:47;13.77;;;2.60;;
51866;SDS011;52862;52.504;13.480;2023-09-30T11:36:17;17.90;;;3.75;;
51866;SDS011;52862;52.504;13.480;2023-09-30T11:38:47;13.20;;;3.63;;
51866;SDS011;52862;52.504;13.480;2023-09-30T11:41:15;19.20;;;2.90;;
51866;SDS011;52862;52.504;13.480;2023-09-30T11:46:48;25.77;;;2.80;;
51866;SDS011;52862;52.504;13.480;2023-09-30T11:49:29;17.30;;;3.17;;
51866;SDS011;52862;52.504;13.480;2023-09-30T11:51:58;26.42;;;3.70;;
51866;SDS011;52862;52.504;13.480;2023-09-30T11:54:30;25.33;;;3.17;;
51866;SDS011;52862;52.504;13.480;2023-09-30T11:56:58;15.65;;;2.70;;
51866;SDS011;52862;52.504;13.480;2023-09-30T11:59:26;12.00;;;2.40;;
51866;SDS011;52862;52.504;13.480;2023-09-30T12:01:53;24.42;;;3.17;;
51866;SDS011;52862;52.504;13.480;2023-09-30T12:04:39;15.75;;;2.38;;
51866;SDS011;52862;52.504;13.480;2023-09-30T12:07:07;15.82;;;3.60;;
51866;SDS011;52862;52.504;13.480;2023-09-30T12:09:39;18.23;;;3.33;;
51866;SDS011;52862;52.504;13.480;2023-09-30T12:12:13;15.00;;;2.97;;
51866;SDS011;52862;52.504;13.480;2023-09-30T12:14:40;17.02;;;3.28;;
51866;SDS011;52862;52.504;13.480;2023-09-30T12:17:07;12.30;;;2.63;;
51866;SDS011;52862;52.504;13.480;2023-09-30T12:19:38;16.70;;;3.83;;
51866;SDS011;52862;52.504;13.480;2023-09-30T12:22:06;18.48;;;3.25;;
51866;SDS011;52862;52.504;13.480;2023-09-30T12:24:33;17.35;;;3.38;;
51866;SDS011;52862;52.504;13.480;2023-09-30T12:27:00;18.30;;;2.92;;
51866;SDS011;52862;52.504;13.480;2023-09-30T12:29:28;14.02;;;2.67;;
51866;SDS011;52862;52.504;13.480;2023-09-30T12:31:55;16.33;;;3.22;;
51866;SDS011;52862;52.504;13.480;2023-09-30T12:34:22;13.95;;;2.70;;
51866;SDS011;52862;52.504;13.480;2023-09-30T12:36:53;7.65;;;1.85;;
51866;SDS011;52862;52.504;13.480;2023-09-30T12:39:21;19.02;;;2.75;;
51866;SDS011;52862;52.504;13.480;2023-09-30T12:41:49;17.50;;;2.85;;
51866;SDS011;52862;52.504;13.480;2023-09-30T12:44:16;13.45;;;2.85;;
51866;SDS011;52862;52.504;13.480;2023-09-30T12:46:43;12.15;;;2.50;;
51866;SDS011;52862;52.504;13.480;2023-09-30T12:49:10;19.13;;;2.55;;
51866;SDS011;52862;52.504;13.480;2023-09-30T12:51:37;21.42;;;2.80;;
51866;SDS011;52862;52.504;13.480;2023-09-30T12:54:05;11.10;;;2.63;;
51866;SDS011;52862;52.504;13.480;2023-09-30T12:56:33;15.13;;;3.03;;
51866;SDS011;52862;52.504;13.480;2023-09-30T12:59:00;12.77;;;2.90;;
51866;SDS011;52862;52.504;13.480;2023-09-30T13:01:28;15.23;;;2.38;;
51866;SDS011;52862;52.504;13.480;2023-09-30T13:03:57;8.80;;;2.20;;
51866;SDS011;52862;52.504;13.480;2023-09-30T13:06:24;19.67;;;2.72;;
51866;SDS011;52862;52.504;13.480;2023-09-30T13:08:51;15.65;;;2.35;;
51866;SDS011;52862;52.504;13.480;2023-09-30T13:11:18;21.73;;;2.50;;
51866;SDS011;52862;52.504;13.480;2023-09-30T13:13:45;8.90;;;2.45;;
51866;SDS011;52862;52.504;13.480;2023-09-30T13:16:12;23.10;;;2.42;;
51866;SDS011;52862;52.504;13.480;2023-09-30T13:18:39;13.00;;;2.38;;
51866;SDS011;52862;52.504;13.480;2023-09-30T13:21:06;9.63;;;2.42;;
51866;SDS011;52862;52.504;13.480;2023-09-30T13:23:33;23.65;;;2.97;;
51866;SDS011;52862;52.504;13.480;2023-09-30T13:26:00;22.00;;;3.25;;
51866;SDS011;52862;52.504;13.480;2023-09-30T13:28:29;14.30;;;2.10;;
51866;SDS011;52862;52.504;13.480;2023-09-30T13:30:56;15.25;;;2.53;;
51866;SDS011;52862;52.504;13.480;2023-09-30T13:33:23;10.10;;;2.55;;
51866;SDS011;52862;52.504;13.480;2023-09-30T13:35:50;13.20;;;2.45;;
51866;SDS011;52862;52.504;13.480;2023-09-30T13:38:16;16.10;;;3.60;;
51866;SDS011;52862;52.504;13.480;2023-09-30T13:40:43;9.63;;;1.98;;
51866;SDS011;52862;52.504;13.480;2023-09-30T13:43:11;9.27;;;2.08;;
51866;SDS011;52862;52.504;13.480;2023-09-30T13:45:39;16.27;;;2.67;;
51866;SDS011;52862;52.504;13.480;2023-09-30T13:48:06;6.25;;;1.92;;
51866;SDS011;52862;52.504;13.480;2023-09-30T13:50:33;12.10;;;2.60;;
51866;SDS011;52862;52.504;13.480;2023-09-30T13:53:01;10.27;;;2.85;;
51866;SDS011;52862;52.504;13.480;2023-09-30T13:55:28;11.80;;;2.50;;
51866;SDS011;52862;52.504;13.480;2023-09-30T13:57:55;13.27;;;2.03;;
51866;SDS011;52862;52.504;13.480;2023-09-30T14:00:22;6.00;;;2.00;;
51866;SDS011;52862;52.504;13.480;2023-09-30T14:02:50;12.10;;;2.35;;
51866;SDS011;52862;52.504;13.480;2023-09-30T14:05:17;16.80;;;2.63;;
51866;SDS011;52862;52.504;13.480;2023-09-30T14:07:45;10.00;;;1.75;;
51866;SDS011;52862;52.504;13.480;2023-09-30T14:10:12;11.80;;;2.10;;
51866;SDS011;52862;52.504;13.480;2023-09-30T14:12:39;13.80;;;1.95;;
51866;SDS011;52862;52.504;13.480;2023-09-30T14:15:07;19.00;;;2.50;;
51866;SDS011;52862;52.504;13.480;2023-09-30T14:17:35;18.27;;;2.53;;
51866;SDS011;52862;52.504;13.480;2023-09-30T14:20:04;13.45;;;2.55;;
51866;SDS011;52862;52.504;13.480;2023-09-30T14:22:32;12.27;;;2.47;;
51866;SDS011;52862;52.504;13.480;2023-09-30T14:25:00;18.70;;;2.95;;
51866;SDS011;52862;52.504;13.480;2023-09-30T14:27:27;10.52;;;2.28;;
51866;SDS011;52862;52.504;13.480;2023-09-30T14:29:56;8.40;;;1.90;;
51866;SDS011;52862;52.504;13.480;2023-09-30T14:32:23;19.08;;;2.22;;
51866;SDS011;52862;52.504;13.480;2023-09-30T14:34:51;17.67;;;2.33;;
51866;SDS011;52862;52.504;13.480;2023-09-30T14:37:19;12.80;;;2.50;;
51866;SDS011;52862;52.504;13.480;2023-09-30T14:39:46;12.13;;;2.03;;
51866;SDS011;52862;52.504;13.480;2023-09-30T14:42:13;9.95;;;2.25;;
51866;SDS011;52862;52.504;13.480;2023-09-30T14:44:40;13.00;;;2.40;;
51866;SDS011;52862;52.504;13.480;2023-09-30T14:47:08;13.05;;;2.25;;
51866;SDS011;52862;52.504;13.480;2023-09-30T14:49:35;16.85;;;3.20;;
51866;SDS011;52862;52.504;13.480;2023-09-30T14:52:02;25.17;;;2.33;;